Time;durP1;ratioP1;P1;durP2;ratioP2;P2;SDS_P1;SDS_P2;PMS_P1;PMS_P2;Temp;Humidity;BMP_temperature;BMP_pressure;BME280_temperature;BME280_humidity;BME280_pressure;Samples;Min_cycle;Max_cycle;Signal;HPM_P1;HPM_P2
2023/07/17 00:00:55;;;;;;;7.00;2.50;;;18.30;99.90;;;;;;7280342;19;20188;-78
2023/07/17 00:03:21;;;;;;;7.20;2.80;;;18.40;99.90;;;;;;7278417;19;20288;-78
2023/07/17 00:05:47;;;;;;;9.37;2.53;;;18.40;99.90;;;;;;7302456;19;20207;-79
2023/07/17 00:08:13;;;;;;;9.70;2.40;;;18.30;99.90;;;;;;7280104;19;20204;-78
2023/07/17 00:10:40;;;;;;;9.20;2.47;;;18.30;99.90;;;;;;7281014;19;20222;-79
2023/07/17 00:13:06;;;;;;;6.40;2.33;;;18.40;99.90;;;;;;7280736;19;20193;-78
2023/07/17 00:15:32;;;;;;;7.30;2.10;;;18.50;99.90;;;;;;7277633;19;20209;-79
2023/07/17 00:17:57;;;;;;;5.70;2.00;;;18.50;99.90;;;;;;7280683;19;20261;-79
2023/07/17 00:20:23;;;;;;;9.70;2.10;;;18.60;99.90;;;;;;7280361;19;20221;-79
2023/07/17 00:22:48;;;;;;;6.03;2.10;;;18.60;99.90;;;;;;7299083;19;20213;-75
2023/07/17 00:25:14;;;;;;;5.80;2.07;;;18.70;99.90;;;;;;7288972;19;20185;-79
2023/07/17 00:27:40;;;;;;;5.30;1.80;;;18.70;99.90;;;;;;7279402;19;20182;-79
2023/07/17 00:30:06;;;;;;;6.83;2.27;;;18.80;99.90;;;;;;7277081;19;20647;-79
2023/07/17 00:32:32;;;;;;;6.63;1.90;;;18.70;99.90;;;;;;7278499;19;20208;-79
2023/07/17 00:34:57;;;;;;;11.03;2.10;;;18.70;99.90;;;;;;7278636;19;20640;-79
2023/07/17 00:37:23;;;;;;;8.17;2.30;;;18.70;99.90;;;;;;7279155;19;20227;-79
2023/07/17 00:39:50;;;;;;;10.20;2.33;;;18.60;99.90;;;;;;7299534;19;20181;-77
2023/07/17 00:42:16;;;;;;;9.30;1.90;;;18.50;99.90;;;;;;7307444;19;20192;-79
2023/07/17 00:44:41;;;;;;;7.27;1.97;;;18.40;99.90;;;;;;7284832;19;20276;-79
2023/07/17 00:47:08;;;;;;;8.50;1.87;;;18.40;99.90;;;;;;7285602;19;20192;-79
2023/07/17 00:49:34;;;;;;;7.67;2.20;;;18.30;99.90;;;;;;7285182;19;20194;-79
2023/07/17 00:52:01;;;;;;;6.13;1.90;;;18.30;99.90;;;;;;7286016;19;20189;-79
2023/07/17 00:54:28;;;;;;;5.10;1.70;;;18.20;99.90;;;;;;7284246;19;20248;-78
2023/07/17 00:56:57;;;;;;;7.50;1.93;;;18.20;99.90;;;;;;7283479;19;20617;-78
2023/07/17 00:59:22;;;;;;;8.00;2.00;;;18.10;99.90;;;;;;7286236;19;20226;-78
2023/07/17 01:01:48;;;;;;;10.77;2.30;;;18.20;99.90;;;;;;7306081;19;21053;-78
2023/07/17 01:04:14;;;;;;;7.47;1.80;;;18.20;99.90;;;;;;7282060;19;20202;-79
2023/07/17 01:06:40;;;;;;;5.90;2.00;;;18.10;99.90;;;;;;7286160;19;20184;-79
2023/07/17 01:09:07;;;;;;;7.00;1.90;;;18.10;99.90;;;;;;7282350;19;20311;-79
2023/07/17 01:11:34;;;;;;;7.07;2.17;;;18.00;99.90;;;;;;7285744;19;20257;-79
2023/07/17 01:14:00;;;;;;;7.03;2.23;;;17.90;99.90;;;;;;7285794;19;20282;-79
2023/07/17 01:16:25;;;;;;;8.03;1.90;;;17.90;99.90;;;;;;7284026;19;20213;-79
2023/07/17 01:18:51;;;;;;;7.53;2.20;;;17.90;99.90;;;;;;7284528;19;20542;-79
2023/07/17 01:21:22;;;;;;;9.97;2.40;;;17.80;99.90;;;;;;7306839;19;20243;-79
2023/07/17 01:23:48;;;;;;;8.10;2.40;;;17.70;99.90;;;;;;7284698;19;20790;-79
2023/07/17 01:26:16;;;;;;;7.83;1.83;;;17.60;99.90;;;;;;7285764;19;20260;-79
2023/07/17 01:28:43;;;;;;;5.87;1.83;;;17.50;99.90;;;;;;7284006;19;20181;-79
2023/07/17 01:31:10;;;;;;;6.03;2.00;;;17.50;99.90;;;;;;7280442;19;22261;-79
2023/07/17 01:33:36;;;;;;;8.63;2.30;;;17.40;99.90;;;;;;7284313;19;20688;-79
2023/07/17 01:36:05;;;;;;;7.93;2.00;;;17.40;99.90;;;;;;7283071;19;20188;-79
2023/07/17 01:38:31;;;;;;;9.43;1.83;;;17.50;99.90;;;;;;7283384;19;20190;-79
2023/07/17 01:40:57;;;;;;;8.47;2.17;;;17.50;99.90;;;;;;7283730;19;20244;-79
2023/07/17 01:43:23;;;;;;;8.33;1.87;;;17.50;99.90;;;;;;7283314;19;20188;-79
2023/07/17 01:45:49;;;;;;;6.40;1.93;;;17.50;99.90;;;;;;7305605;19;20731;-79
2023/07/17 01:48:14;;;;;;;8.73;2.40;;;17.40;99.90;;;;;;7284764;19;20222;-79
2023/07/17 01:50:49;;;;;;;7.47;2.00;;;17.40;99.90;;;;;;7284577;19;20185;-78
2023/07/17 01:53:20;;;;;;;8.43;1.90;;;17.40;99.90;;;;;;7283940;19;20331;-79
2023/07/17 01:55:47;;;;;;;9.47;2.37;;;17.40;99.90;;;;;;7283011;19;20195;-78
2023/07/17 01:58:13;;;;;;;8.07;2.10;;;17.30;99.90;;;;;;7284185;19;20187;-78
2023/07/17 02:00:41;;;;;;;9.90;2.37;;;17.30;99.90;;;;;;7282864;19;20204;-79
2023/07/17 02:03:07;;;;;;;7.43;2.10;;;17.20;99.90;;;;;;7283512;19;20209;-78
2023/07/17 02:05:33;;;;;;;8.00;2.27;;;17.20;99.90;;;;;;7283580;19;20257;-78
2023/07/17 02:07:59;;;;;;;7.73;2.13;;;17.20;99.90;;;;;;7282119;19;20344;-80
2023/07/17 02:10:28;;;;;;;8.17;2.27;;;17.10;99.90;;;;;;7281148;19;20631;-79
2023/07/17 02:12:55;;;;;;;7.17;2.13;;;17.10;99.90;;;;;;7282465;19;20211;-79
2023/07/17 02:15:21;;;;;;;9.53;2.33;;;17.20;99.90;;;;;;7284352;19;20192;-77
2023/07/17 02:17:47;;;;;;;6.03;1.80;;;17.10;99.90;;;;;;7304070;19;20192;-79
2023/07/17 02:20:13;;;;;;;10.40;2.30;;;17.00;99.90;;;;;;7283162;19;20199;-78
2023/07/17 02:22:39;;;;;;;7.53;2.33;;;17.00;99.90;;;;;;7284153;19;20566;-78
2023/07/17 02:25:05;;;;;;;9.10;2.37;;;17.00;99.90;;;;;;7283397;19;20312;-78
2023/07/17 02:27:34;;;;;;;6.00;2.00;;;17.00;99.90;;;;;;7281599;19;20256;-78
2023/07/17 02:30:00;;;;;;;6.90;2.10;;;17.00;99.90;;;;;;7280867;19;20193;-79
2023/07/17 02:32:29;;;;;;;8.63;2.20;;;16.90;99.90;;;;;;7283459;19;20197;-78
2023/07/17 02:34:58;;;;;;;7.03;2.50;;;16.90;99.90;;;;;;7282731;19;20207;-78
2023/07/17 02:37:24;;;;;;;6.57;2.50;;;16.90;99.90;;;;;;7282372;19;20652;-79
2023/07/17 02:39:49;;;;;;;9.63;2.43;;;16.90;99.90;;;;;;7295866;19;20224;-78
2023/07/17 02:42:15;;;;;;;7.60;2.70;;;16.90;99.90;;;;;;7298595;19;20612;-79
2023/07/17 02:44:41;;;;;;;8.77;2.40;;;16.90;99.90;;;;;;7283071;19;20193;-79
2023/07/17 02:47:07;;;;;;;6.27;2.20;;;16.80;99.90;;;;;;7281551;19;20607;-78
2023/07/17 02:49:32;;;;;;;8.87;2.60;;;16.80;99.90;;;;;;7281978;19;20264;-78
2023/07/17 02:51:58;;;;;;;8.87;2.40;;;16.80;99.90;;;;;;7281825;19;20198;-78
2023/07/17 02:54:24;;;;;;;10.50;2.23;;;16.70;99.90;;;;;;7281206;19;20208;-78
2023/07/17 02:56:49;;;;;;;6.50;2.40;;;16.70;99.90;;;;;;7297429;19;20200;-78
2023/07/17 02:59:15;;;;;;;5.53;1.97;;;16.70;99.90;;;;;;7297026;19;20220;-75
2023/07/17 03:01:41;;;;;;;6.47;2.30;;;16.80;99.90;;;;;;7278917;19;20224;-78
2023/07/17 03:04:07;;;;;;;9.13;2.73;;;16.70;99.90;;;;;;7283978;19;20667;-74
2023/07/17 03:06:33;;;;;;;6.37;2.20;;;16.70;99.90;;;;;;7284213;19;20231;-74
2023/07/17 03:08:59;;;;;;;6.67;2.60;;;16.60;99.90;;;;;;7280390;19;20188;-74
2023/07/17 03:11:25;;;;;;;6.77;2.47;;;16.70;99.90;;;;;;7280784;19;20693;-77
2023/07/17 03:13:50;;;;;;;11.60;2.77;;;16.70;99.90;;;;;;7288268;19;20181;-78
2023/07/17 03:16:16;;;;;;;9.47;2.60;;;16.70;99.90;;;;;;7304248;19;20547;-78
2023/07/17 03:18:42;;;;;;;9.93;2.60;;;16.60;99.90;;;;;;7281656;19;20189;-73
2023/07/17 03:21:08;;;;;;;11.20;2.40;;;16.60;99.90;;;;;;7281684;19;20539;-74
2023/07/17 03:23:34;;;;;;;11.13;2.73;;;16.70;99.90;;;;;;7279337;19;20233;-75
2023/07/17 03:25:59;;;;;;;8.90;2.53;;;16.60;99.90;;;;;;7281885;19;20198;-79
2023/07/17 03:28:25;;;;;;;8.37;2.70;;;16.60;99.90;;;;;;7280448;19;20216;-79
2023/07/17 03:30:51;;;;;;;10.53;2.70;;;16.60;99.90;;;;;;7282049;19;20228;-77
2023/07/17 03:33:17;;;;;;;10.07;3.20;;;16.60;99.90;;;;;;7302810;19;20722;-78
2023/07/17 03:35:45;;;;;;;11.20;2.87;;;16.60;99.90;;;;;;7279657;19;20216;-74
2023/07/17 03:38:11;;;;;;;12.20;3.27;;;16.70;99.90;;;;;;7279292;19;20312;-80
2023/07/17 03:40:37;;;;;;;14.07;3.13;;;16.70;99.90;;;;;;7279148;19;20203;-75
2023/07/17 03:43:04;;;;;;;10.43;2.93;;;16.60;99.90;;;;;;7280560;19;20191;-74
2023/07/17 03:45:30;;;;;;;8.37;3.03;;;16.60;99.90;;;;;;7278979;19;20549;-74
2023/07/17 03:47:56;;;;;;;8.60;2.93;;;16.60;99.90;;;;;;7279131;19;20192;-74
2023/07/17 03:50:22;;;;;;;12.97;3.23;;;16.60;99.90;;;;;;7279229;19;20184;-74
2023/07/17 03:52:48;;;;;;;12.40;2.93;;;16.60;99.90;;;;;;7299959;19;20208;-74
2023/07/17 03:55:15;;;;;;;7.23;3.03;;;16.70;99.90;;;;;;7279024;19;20248;-74
2023/07/17 03:57:41;;;;;;;9.30;2.80;;;16.70;99.90;;;;;;7280529;19;20195;-79
2023/07/17 04:00:14;;;;;;;9.67;3.50;;;16.70;99.90;;;;;;7279153;19;20565;-78
2023/07/17 04:02:41;;;;;;;12.50;3.40;;;16.70;99.90;;;;;;7281118;19;20212;-78
2023/07/17 04:05:11;;;;;;;12.07;3.30;;;16.70;99.90;;;;;;7281133;19;20178;-80
2023/07/17 04:07:37;;;;;;;11.20;3.77;;;16.80;99.90;;;;;;7279158;19;20200;-74
2023/07/17 04:10:03;;;;;;;10.77;3.60;;;16.80;99.90;;;;;;7278369;19;21065;-79
2023/07/17 04:12:29;;;;;;;13.27;3.60;;;16.80;99.90;;;;;;7280244;19;20188;-78
2023/07/17 04:14:56;;;;;;;14.07;3.77;;;16.80;99.90;;;;;;7284309;19;20189;-78
2023/07/17 04:17:22;;;;;;;14.20;3.67;;;16.70;99.90;;;;;;7288582;19;20184;-78
2023/07/17 04:19:48;;;;;;;13.03;3.70;;;16.80;99.90;;;;;;7309038;19;20180;-79
2023/07/17 04:22:14;;;;;;;10.87;3.70;;;16.90;99.90;;;;;;7286077;19;20584;-78
2023/07/17 04:24:39;;;;;;;12.43;3.70;;;17.00;99.90;;;;;;7286257;19;20279;-74
2023/07/17 04:27:05;;;;;;;10.40;4.13;;;17.00;99.90;;;;;;7285651;19;20186;-74
2023/07/17 04:29:31;;;;;;;14.60;4.00;;;17.10;99.90;;;;;;7285950;19;20181;-78
2023/07/17 04:32:00;;;;;;;10.87;4.33;;;17.10;99.90;;;;;;7285422;19;20193;-74
2023/07/17 04:34:28;;;;;;;14.63;3.97;;;17.20;99.90;;;;;;7285075;19;20181;-74
2023/07/17 04:36:54;;;;;;;11.33;4.30;;;17.30;99.90;;;;;;7283546;19;20185;-74
2023/07/17 04:39:22;;;;;;;9.47;3.70;;;17.40;99.90;;;;;;7284232;19;20285;-74
2023/07/17 04:41:49;;;;;;;11.50;3.87;;;17.50;99.90;;;;;;7307036;19;20256;-74
2023/07/17 04:44:17;;;;;;;9.67;3.60;;;17.60;99.90;;;;;;7286025;19;20195;-74
2023/07/17 04:46:43;;;;;;;10.13;3.80;;;17.90;99.90;;;;;;7285618;19;20188;-74
2023/07/17 04:49:10;;;;;;;10.97;4.00;;;18.00;99.90;;;;;;7284233;19;20348;-75
2023/07/17 04:51:35;;;;;;;15.10;4.03;;;18.40;99.90;;;;;;7285832;19;20212;-79
2023/07/17 04:54:02;;;;;;;10.47;3.87;;;19.00;99.90;;;;;;7285076;19;20240;-78
2023/07/17 04:56:28;;;;;;;15.97;4.00;;;19.70;99.90;;;;;;7283124;19;20213;-74
2023/07/17 04:58:54;;;;;;;12.23;3.87;;;20.50;99.90;;;;;;7283633;19;20538;-74
2023/07/17 05:01:20;;;;;;;11.77;4.07;;;20.80;99.90;;;;;;7293913;19;20190;-74
2023/07/17 05:03:46;;;;;;;15.50;3.83;;;20.90;99.90;;;;;;7302794;19;20211;-74
2023/07/17 05:06:12;;;;;;;8.40;3.70;;;21.50;99.90;;;;;;7283578;19;20232;-74
2023/07/17 05:08:37;;;;;;;10.17;3.50;;;21.80;99.90;;;;;;7283005;19;20200;-74
2023/07/17 05:11:04;;;;;;;14.37;4.17;;;22.30;99.90;;;;;;7284352;19;20207;-74
2023/07/17 05:13:35;;;;;;;10.90;4.07;;;22.90;99.90;;;;;;7283910;19;20180;-74
2023/07/17 05:16:02;;;;;;;11.67;4.23;;;23.00;99.90;;;;;;7285844;19;20192;-74
2023/07/17 05:18:30;;;;;;;15.03;4.20;;;23.60;99.90;;;;;;7285172;19;20664;-75
2023/07/17 05:20:56;;;;;;;10.00;4.00;;;24.50;99.90;;;;;;7286354;19;20197;-78
2023/07/17 05:23:22;;;;;;;13.63;4.47;;;24.60;99.90;;;;;;7284993;19;20204;-77
2023/07/17 05:25:53;;;;;;;10.43;3.87;;;25.00;99.90;;;;;;7306299;19;20245;-74
2023/07/17 05:28:19;;;;;;;15.97;4.73;;;25.10;99.90;;;;;;7281805;19;20192;-75
2023/07/17 05:30:45;;;;;;;11.83;4.00;;;25.50;99.90;;;;;;7297947;19;20271;-74
2023/07/17 05:33:12;;;;;;;12.70;4.17;;;26.00;99.90;;;;;;7285912;19;20197;-78
2023/07/17 05:35:38;;;;;;;11.77;4.63;;;25.90;99.90;;;;;;7285007;19;20189;-73
2023/07/17 05:38:04;;;;;;;12.37;4.40;;;26.30;99.90;;;;;;7284032;19;20200;-73
2023/07/17 05:40:35;;;;;;;10.53;4.60;;;26.90;99.90;;;;;;7284456;19;20192;-78
2023/07/17 05:43:03;;;;;;;12.73;5.07;;;27.00;99.90;;;;;;7282439;19;20217;-75
2023/07/17 05:45:29;;;;;;;10.80;4.23;;;26.80;99.90;;;;;;7283895;19;20503;-75
2023/07/17 05:47:55;;;;;;;14.83;4.73;;;26.20;99.90;;;;;;7284109;19;20785;-74
2023/07/17 05:50:21;;;;;;;13.90;4.90;;;26.50;99.90;;;;;;7288369;19;20219;-73
2023/07/17 05:52:46;;;;;;;15.88;4.65;;;26.20;99.90;;;;;;7304556;19;21821;-74
2023/07/17 05:55:15;;;;;;;13.80;5.00;;;26.70;99.90;;;;;;7282214;19;20192;-74
2023/07/17 05:57:41;;;;;;;16.38;4.68;;;26.60;99.90;;;;;;7280933;19;20532;-78
2023/07/17 06:00:14;;;;;;;16.97;5.03;;;26.80;99.90;;;;;;7284681;19;20193;-74
2023/07/17 06:02:41;;;;;;;13.13;4.93;;;26.90;99.90;;;;;;7281689;19;20569;-75
2023/07/17 06:05:08;;;;;;;12.05;4.75;;;27.50;99.90;;;;;;7283994;19;20291;-74
2023/07/17 06:07:33;;;;;;;12.82;4.50;;;27.70;99.90;;;;;;7282575;19;20192;-74
2023/07/17 06:09:59;;;;;;;14.43;4.83;;;28.00;99.90;;;;;;7281553;19;20223;-74
2023/07/17 06:12:25;;;;;;;12.07;4.80;;;27.70;99.90;;;;;;7284924;19;20620;-78
2023/07/17 06:14:51;;;;;;;14.50;5.28;;;28.20;99.90;;;;;;7291299;19;20652;-78
2023/07/17 06:17:17;;;;;;;13.90;4.70;;;27.50;99.90;;;;;;7305516;19;20176;-77
2023/07/17 06:19:43;;;;;;;16.17;4.90;;;27.40;99.90;;;;;;7288461;19;20762;-78
2023/07/17 06:22:08;;;;;;;13.23;5.00;;;26.50;99.90;;;;;;7286834;19;20649;-78
2023/07/17 06:24:34;;;;;;;11.23;4.67;;;26.60;99.90;;;;;;7285161;19;20195;-78
2023/07/17 06:27:00;;;;;;;17.42;5.45;;;26.70;99.90;;;;;;7285483;19;20185;-78
2023/07/17 06:29:26;;;;;;;14.25;5.28;;;27.00;99.90;;;;;;7281810;19;20668;-73
2023/07/17 06:31:51;;;;;;;12.40;4.78;;;27.80;99.90;;;;;;7283611;19;20570;-74
2023/07/17 06:34:18;;;;;;;12.32;5.28;;;28.50;99.90;;;;;;7307075;19;20185;-78
2023/07/17 06:36:45;;;;;;;13.05;5.28;;;28.90;99.90;;;;;;7280059;19;20276;-79
2023/07/17 06:39:11;;;;;;;14.68;5.43;;;28.40;99.90;;;;;;7285579;19;20223;-78
2023/07/17 06:41:36;;;;;;;14.40;4.95;;;28.00;99.90;;;;;;7283933;19;20181;-74
2023/07/17 06:44:02;;;;;;;12.00;5.18;;;28.60;99.90;;;;;;7279772;19;20207;-73
2023/07/17 06:46:28;;;;;;;16.95;7.88;;;28.40;99.90;;;;;;7281398;19;20205;-74
2023/07/17 06:48:53;;;;;;;12.45;5.20;;;27.40;99.90;;;;;;7281557;19;20192;-73
2023/07/17 06:51:19;;;;;;;12.25;5.22;;;27.20;99.90;;;;;;7301529;19;20691;-74
2023/07/17 06:53:45;;;;;;;13.57;5.20;;;27.60;99.90;;;;;;7281914;19;20203;-74
2023/07/17 06:56:11;;;;;;;12.80;5.38;;;28.70;99.90;;;;;;7280046;19;20362;-74
2023/07/17 06:58:37;;;;;;;12.18;4.85;;;28.80;99.90;;;;;;7281971;19;20193;-79
2023/07/17 07:01:03;;;;;;;11.90;4.97;;;28.60;99.90;;;;;;7282547;19;20216;-78
2023/07/17 07:03:29;;;;;;;14.70;5.20;;;28.30;99.90;;;;;;7283401;19;20181;-74
2023/07/17 07:05:57;;;;;;;14.93;5.43;;;29.40;99.90;;;;;;7281456;19;20188;-74
2023/07/17 07:08:24;;;;;;;13.75;5.47;;;30.10;99.90;;;;;;7279255;19;20189;-73
2023/07/17 07:10:52;;;;;;;13.27;5.60;;;30.20;99.90;;;;;;7294666;19;20280;-75
2023/07/17 07:13:19;;;;;;;12.10;5.55;;;31.10;99.90;;;;;;7302762;19;20189;-74
2023/07/17 07:15:45;;;;;;;11.98;5.80;;;31.30;99.90;;;;;;7279369;19;20314;-74
2023/07/17 07:18:10;;;;;;;14.55;5.75;;;32.10;99.50;;;;;;7281591;19;20185;-74
2023/07/17 07:20:36;;;;;;;14.07;5.15;;;31.40;98.10;;;;;;7280495;19;20209;-74
2023/07/17 07:23:02;;;;;;;14.95;5.90;;;31.20;97.90;;;;;;7280872;19;20551;-78
2023/07/17 07:25:28;;;;;;;11.88;5.40;;;32.00;98.30;;;;;;7283505;19;20571;-73
2023/07/17 07:27:54;;;;;;;14.13;5.15;;;32.10;96.70;;;;;;7280287;19;20195;-74
2023/07/17 07:30:19;;;;;;;10.15;4.90;;;32.40;96.50;;;;;;7300944;19;20223;-74
2023/07/17 07:32:45;;;;;;;11.77;5.45;;;32.50;94.50;;;;;;7282660;19;20192;-74
2023/07/17 07:35:11;;;;;;;13.00;5.97;;;32.60;94.40;;;;;;7281188;19;20186;-74
2023/07/17 07:37:37;;;;;;;12.88;5.20;;;32.60;95.10;;;;;;7280957;19;20227;-74
2023/07/17 07:40:06;;;;;;;15.07;5.70;;;32.00;93.30;;;;;;7281822;19;20192;-78
2023/07/17 07:42:34;;;;;;;12.45;5.95;;;30.50;94.70;;;;;;7278818;19;20188;-74
2023/07/17 07:45:00;;;;;;;14.07;5.80;;;30.00;96.60;;;;;;7278553;19;20204;-74
2023/07/17 07:47:26;;;;;;;13.95;5.55;;;30.00;96.80;;;;;;7278689;19;20185;-74
2023/07/17 07:49:52;;;;;;;13.02;5.80;;;31.10;95.80;;;;;;7278568;19;20589;-74
2023/07/17 07:52:18;;;;;;;14.13;5.88;;;31.80;94.30;;;;;;7301176;19;20200;-74
2023/07/17 07:54:44;;;;;;;15.40;5.65;;;30.50;94.40;;;;;;7278416;19;20190;-73
2023/07/17 07:57:10;;;;;;;12.95;5.95;;;29.70;96.20;;;;;;7278839;19;20210;-74
2023/07/17 07:59:36;;;;;;;13.63;5.40;;;30.50;95.70;;;;;;7279602;19;20677;-74
2023/07/17 08:02:03;;;;;;;13.48;5.72;;;29.90;95.30;;;;;;7278088;19;20201;-72
2023/07/17 08:04:29;;;;;;;14.07;5.40;;;28.40;97.30;;;;;;7279202;19;20188;-74
2023/07/17 08:06:55;;;;;;;12.93;5.97;;;28.80;97.40;;;;;;7277833;19;20189;-74
2023/07/17 08:09:22;;;;;;;13.13;5.50;;;28.60;97.40;;;;;;7277156;19;20188;-74
2023/07/17 08:11:48;;;;;;;12.90;4.95;;;28.10;98.10;;;;;;7299550;19;20192;-73
2023/07/17 08:14:14;;;;;;;12.18;5.13;;;28.90;97.00;;;;;;7278100;19;20180;-74
2023/07/17 08:16:40;;;;;;;11.98;5.05;;;29.50;96.90;;;;;;7276336;19;20378;-74
2023/07/17 08:19:06;;;;;;;12.13;5.10;;;28.50;96.60;;;;;;7279452;19;20193;-73
2023/07/17 08:21:32;;;;;;;11.63;5.10;;;28.80;96.30;;;;;;7277331;19;20617;-73
2023/07/17 08:23:58;;;;;;;12.55;5.28;;;28.40;96.50;;;;;;7275791;19;20263;-74
2023/07/17 08:26:24;;;;;;;11.02;5.25;;;30.60;94.80;;;;;;7278360;19;20196;-74
2023/07/17 08:28:50;;;;;;;11.98;5.40;;;32.10;92.70;;;;;;7298574;19;20200;-76
2023/07/17 08:31:16;;;;;;;13.43;5.13;;;32.80;91.30;;;;;;7291782;19;20199;-79
2023/07/17 08:33:41;;;;;;;13.98;4.78;;;32.30;91.50;;;;;;7279962;19;20882;-78
2023/07/17 08:36:08;;;;;;;10.90;4.60;;;32.10;90.40;;;;;;7279170;19;20201;-79
2023/07/17 08:38:34;;;;;;;9.85;4.80;;;32.10;90.30;;;;;;7285002;19;20188;-78
2023/07/17 08:41:00;;;;;;;10.93;4.90;;;33.50;90.10;;;;;;7278791;19;20192;-78
2023/07/17 08:43:27;;;;;;;11.18;4.53;;;34.00;87.20;;;;;;7278047;19;20572;-78
2023/07/17 08:45:53;;;;;;;12.32;5.20;;;31.40;86.30;;;;;;7279490;19;20181;-78
2023/07/17 08:48:19;;;;;;;12.60;4.50;;;30.00;90.70;;;;;;7300471;19;20196;-78
2023/07/17 08:50:45;;;;;;;9.65;4.55;;;30.00;91.30;;;;;;7279627;19;20184;-79
2023/07/17 08:53:12;;;;;;;10.25;4.35;;;29.80;91.20;;;;;;7277889;19;20307;-78
2023/07/17 08:55:38;;;;;;;11.18;4.28;;;29.60;91.80;;;;;;7279301;19;20620;-79
2023/07/17 08:58:04;;;;;;;10.82;4.57;;;29.60;91.20;;;;;;7278893;19;20185;-79
2023/07/17 09:00:32;;;;;;;12.57;4.70;;;29.20;90.60;;;;;;7279916;19;20199;-79
2023/07/17 09:02:58;;;;;;;11.65;4.32;;;28.40;92.00;;;;;;7285256;19;20188;-79
2023/07/17 09:05:24;;;;;;;14.52;4.35;;;28.10;92.40;;;;;;7284967;19;20192;-78
2023/07/17 09:07:50;;;;;;;10.07;3.80;;;29.40;91.10;;;;;;7304053;19;20268;-75
2023/07/17 09:10:21;;;;;;;10.05;4.18;;;29.80;91.90;;;;;;7297369;19;20181;-79
2023/07/17 09:12:54;;;;;;;10.25;4.18;;;29.60;90.60;;;;;;7286751;19;20605;-79
2023/07/17 09:15:20;;;;;;;11.43;4.55;;;29.80;91.90;;;;;;7284620;19;20587;-78
2023/07/17 09:17:46;;;;;;;11.52;4.45;;;29.10;90.50;;;;;;7284113;19;20187;-78
2023/07/17 09:20:16;;;;;;;12.50;4.57;;;29.20;91.60;;;;;;7285612;19;20188;-78
2023/07/17 09:22:42;;;;;;;9.02;4.35;;;29.30;91.50;;;;;;7284959;19;20597;-78
2023/07/17 09:25:09;;;;;;;7.93;4.13;;;29.10;91.20;;;;;;7285450;19;20550;-79
2023/07/17 09:27:45;;;;;;;11.40;4.47;;;29.10;91.50;;;;;;7286001;19;20189;-79
2023/07/17 09:30:12;;;;;;;9.10;3.90;;;30.40;91.00;;;;;;7280615;19;20197;-79
2023/07/17 09:32:38;;;;;;;11.43;3.97;;;30.40;87.70;;;;;;7286051;19;20185;-79
2023/07/17 09:35:06;;;;;;;7.70;3.67;;;31.30;87.40;;;;;;7284159;19;20651;-78
2023/07/17 09:37:33;;;;;;;9.70;4.13;;;32.40;87.70;;;;;;7282163;19;20193;-79
2023/07/17 09:40:21;;;;;;;10.55;4.38;;;32.90;86.00;;;;;;7284852;19;20227;-78
2023/07/17 09:42:55;;;;;;;8.73;3.92;;;32.60;81.40;;;;;;7284009;19;20687;-80
2023/07/17 09:45:21;;;;;;;10.65;3.90;;;32.20;81.50;;;;;;7278536;19;20185;-77
2023/07/17 09:47:50;;;;;;;9.65;3.75;;;31.30;80.90;;;;;;7302394;19;20766;-79
2023/07/17 09:50:16;;;;;;;9.35;4.00;;;31.50;81.60;;;;;;7285736;19;20200;-80
2023/07/17 09:52:45;;;;;;;12.10;4.47;;;33.10;78.80;;;;;;7285370;19;20212;-79
2023/07/17 09:55:11;;;;;;;9.20;3.78;;;32.10;78.80;;;;;;7283510;19;20198;-79
2023/07/17 09:57:39;;;;;;;10.55;3.92;;;31.20;82.30;;;;;;7284273;19;20181;-79
2023/07/17 10:00:14;;;;;;;10.45;3.75;;;30.50;83.50;;;;;;7282788;19;20185;-79
2023/07/17 10:02:59;;;;;;;9.55;4.10;;;29.90;83.10;;;;;;7282870;19;20212;-79
2023/07/17 10:05:26;;;;;;;12.30;4.20;;;29.30;84.80;;;;;;7260915;19;20193;-79
2023/07/17 10:07:52;;;;;;;13.68;4.28;;;28.70;86.00;;;;;;7287048;19;20652;-77
2023/07/17 10:10:18;;;;;;;9.52;4.15;;;28.30;88.30;;;;;;7304046;19;20214;-78
2023/07/17 10:12:44;;;;;;;9.68;3.83;;;28.10;90.50;;;;;;7283487;19;20213;-79
2023/07/17 10:15:11;;;;;;;11.45;3.78;;;28.10;90.30;;;;;;7282133;19;20202;-78
2023/07/17 10:17:37;;;;;;;10.25;3.58;;;28.60;90.20;;;;;;7283700;19;20261;-77
2023/07/17 10:20:07;;;;;;;10.20;3.70;;;28.70;88.20;;;;;;7282563;19;20192;-79
2023/07/17 10:22:34;;;;;;;9.68;3.50;;;28.90;88.60;;;;;;7281316;19;20193;-78
2023/07/17 10:25:17;;;;;;;8.52;3.30;;;29.70;88.40;;;;;;7282099;19;20312;-79
2023/07/17 10:27:45;;;;;;;9.02;3.67;;;30.60;85.30;;;;;;7282361;19;20197;-78
2023/07/17 10:30:27;;;;;;;8.80;3.67;;;31.10;85.00;;;;;;7282390;19;20227;-78
2023/07/17 10:33:16;;;;;;;7.93;3.10;;;31.00;84.10;;;;;;7260623;19;20184;-77
2023/07/17 10:36:00;;;;;;;9.30;3.70;;;30.30;83.40;;;;;;7282461;19;20217;-79
2023/07/17 10:38:33;;;;;;;8.82;3.53;;;29.50;85.00;;;;;;7181090;19;2004491;-78
2023/07/17 10:41:03;;;;;;;9.40;3.80;;;28.90;86.30;;;;;;7277803;19;20727;-79
2023/07/17 10:43:29;;;;;;;8.93;3.35;;;29.00;88.20;;;;;;7282476;19;20193;-79
2023/07/17 10:45:55;;;;;;;8.57;3.70;;;28.50;88.50;;;;;;7281891;19;20199;-78
2023/07/17 10:48:25;;;;;;;8.63;3.33;;;27.70;88.30;;;;;;7299132;19;20228;-77
2023/07/17 10:50:53;;;;;;;11.10;3.72;;;27.30;90.20;;;;;;7292733;19;20209;-79
2023/07/17 10:53:20;;;;;;;10.35;3.90;;;27.10;90.10;;;;;;7305151;19;20579;-79
2023/07/17 10:55:46;;;;;;;9.70;3.90;;;26.90;90.70;;;;;;7282314;19;20639;-78
2023/07/17 10:58:13;;;;;;;10.60;3.65;;;27.10;90.50;;;;;;7280873;19;20797;-79
2023/07/17 11:00:43;;;;;;;9.30;3.63;;;26.90;91.10;;;;;;7281260;19;20185;-79
2023/07/17 11:03:10;;;;;;;8.50;3.50;;;27.00;92.10;;;;;;7280950;19;20184;-79
2023/07/17 11:05:40;;;;;;;8.32;3.58;;;27.30;91.60;;;;;;7281541;19;20296;-79
2023/07/17 11:08:09;;;;;;;8.85;3.60;;;28.60;91.90;;;;;;7281580;19;20204;-79
2023/07/17 11:10:41;;;;;;;9.75;3.40;;;30.70;89.00;;;;;;7281024;19;20197;-79
2023/07/17 11:13:07;;;;;;;8.45;3.50;;;32.80;86.20;;;;;;7282575;19;20660;-79
2023/07/17 11:15:35;;;;;;;8.95;3.42;;;34.70;81.50;;;;;;7281073;19;20181;-79
2023/07/17 11:18:02;;;;;;;8.73;3.67;;;34.90;77.70;;;;;;7281222;19;20630;-78
2023/07/17 11:20:29;;;;;;;10.98;3.72;;;34.40;74.50;;;;;;7282156;19;20235;-78
2023/07/17 11:22:55;;;;;;;7.68;3.42;;;33.30;78.20;;;;;;7279962;19;20623;-79
2023/07/17 11:25:27;;;;;;;8.98;3.42;;;32.60;77.80;;;;;;7290432;19;20201;-78
2023/07/17 11:27:54;;;;;;;7.90;3.40;;;32.20;77.80;;;;;;7281969;19;20192;-78
2023/07/17 11:30:34;;;;;;;11.30;3.60;;;31.80;81.10;;;;;;7303045;19;20188;-79
2023/07/17 11:33:06;;;;;;;8.77;3.63;;;32.80;79.40;;;;;;7177819;19;2004697;-78
2023/07/17 11:35:46;;;;;;;13.90;3.95;;;31.60;78.00;;;;;;7280015;19;20213;-78
2023/07/17 11:38:14;;;;;;;10.07;4.32;;;30.30;90.20;;;;;;7282211;19;20180;-78
2023/07/17 11:40:59;;;;;;;13.18;5.13;;;29.70;94.10;;;;;;7281328;19;20429;-78
2023/07/17 11:43:32;;;;;;;12.75;4.60;;;28.70;99.10;;;;;;7258851;19;21438;-78
2023/07/17 11:46:02;;;;;;;10.05;4.57;;;27.60;99.60;;;;;;7281410;19;20191;-79
2023/07/17 11:48:31;;;;;;;11.95;4.85;;;27.20;99.90;;;;;;7280597;19;20660;-78
2023/07/17 11:51:00;;;;;;;11.93;4.70;;;26.60;99.90;;;;;;7280427;19;20184;-78
2023/07/17 11:53:27;;;;;;;13.30;5.40;;;25.80;99.90;;;;;;7361788;19;20189;-78
2023/07/17 11:55:53;;;;;;;10.77;4.70;;;25.20;99.90;;;;;;7417525;19;20133;-78
2023/07/17 11:58:26;;;;;;;10.02;3.80;;;24.60;99.90;;;;;;7417459;19;20140;-74
2023/07/17 12:01:02;;;;;;;8.87;3.90;;;24.60;99.90;;;;;;7303966;19;20220;-78
2023/07/17 12:03:29;;;;;;;11.13;4.28;;;24.80;99.90;;;;;;7325400;19;20194;-75
2023/07/17 12:05:55;;;;;;;9.57;4.10;;;24.80;99.90;;;;;;7313199;19;20616;-79
2023/07/17 12:08:21;;;;;;;9.02;3.72;;;25.40;99.90;;;;;;7292542;19;20185;-77
2023/07/17 12:10:47;;;;;;;10.80;4.32;;;26.10;99.90;;;;;;7295676;19;20264;-78
2023/07/17 12:13:12;;;;;;;13.27;4.55;;;26.40;99.90;;;;;;7279708;19;20208;-78
2023/07/17 12:15:39;;;;;;;10.13;4.05;;;27.00;99.90;;;;;;7278733;19;20188;-78
2023/07/17 12:18:05;;;;;;;8.20;3.53;;;27.60;99.90;;;;;;7280613;19;20185;-79
2023/07/17 12:20:32;;;;;;;8.68;3.80;;;27.80;99.90;;;;;;7278558;19;20665;-78
2023/07/17 12:22:58;;;;;;;10.05;4.25;;;27.50;99.90;;;;;;7278270;19;20181;-79
2023/07/17 12:25:24;;;;;;;11.98;4.22;;;27.40;99.90;;;;;;7280557;19;20188;-78
2023/07/17 12:27:50;;;;;;;10.18;3.83;;;27.20;99.90;;;;;;7301007;19;20195;-77
2023/07/17 12:30:21;;;;;;;9.45;4.10;;;26.80;99.90;;;;;;7279061;19;20657;-79
2023/07/17 12:32:47;;;;;;;9.05;3.78;;;26.50;99.90;;;;;;7279023;19;20184;-79
2023/07/17 12:35:13;;;;;;;11.63;4.10;;;26.60;99.90;;;;;;7280830;19;20272;-79
2023/07/17 12:37:38;;;;;;;6.95;3.25;;;26.60;99.90;;;;;;7286237;19;20193;-79
2023/07/17 12:40:04;;;;;;;12.57;4.18;;;26.50;99.90;;;;;;7286240;19;20549;-79